<?xml version="1.0" encoding="UTF-8" standalone="no" ?>
<gpx xmlns="http://www.topografix.com/GPX/1/1" xmlns:xsi="http://www.w3.org/2001/XMLSchema-instance" xsi:schemaLocation="http://www.topografix.com/GPX/1/1 http://www.topografix.com/GPX/1/1/gpx.xsd" version="1.1" creator="VisuGPX - https://www.visugpx.com">
  <metadata>
    <name>Boucle historique sur les hauteurs de Spicheren - Chemin de la mémoire</name>
    <desc><![CDATA[Randonnée historique sur les hauteurs de Spicheren
]]></desc>
  </metadata>
  <wpt lat="49.20389" lon="6.96885">
    <ele>326</ele>
    <name><![CDATA[Parking - Croix du Souvenir français]]></name>
  </wpt>
  <wpt lat="49.20254" lon="6.96805">
    <ele>321</ele>
    <name><![CDATA[Chemin empierré]]></name>
  </wpt>
  <wpt lat="49.20251" lon="6.9775">
    <ele>377</ele>
    <name><![CDATA[Intersection]]></name>
  </wpt>
  <wpt lat="49.20211" lon="6.98952">
    <ele>385</ele>
    <name><![CDATA[Carrefour]]></name>
  </wpt>
  <wpt lat="49.20298" lon="6.99574">
    <ele>389</ele>
    <name><![CDATA[Carrefour]]></name>
  </wpt>
  <wpt lat="49.19801" lon="7.00717">
    <ele>296</ele>
    <name><![CDATA[Carrefour avec chemin croix de Saint-André bleue]]></name>
  </wpt>
  <wpt lat="49.20111" lon="7.00794">
    <ele>340</ele>
    <name><![CDATA[Carrefour de pistes]]></name>
  </wpt>
  <wpt lat="49.20087" lon="7.01271">
    <ele>337</ele>
    <name><![CDATA[Parking aérien ]]></name>
  </wpt>
  <wpt lat="49.20724" lon="7.01292">
    <ele>348</ele>
    <name><![CDATA[Carrefour de la Keltenstein]]></name>
  </wpt>
  <wpt lat="49.20763" lon="7.00197">
    <ele>332</ele>
    <name><![CDATA[Carrefour piste -chemin]]></name>
  </wpt>
  <wpt lat="49.20602" lon="6.99728">
    <ele>359</ele>
    <name><![CDATA[Carrefour chemin-piste]]></name>
  </wpt>
  <wpt lat="49.20481" lon="6.97146">
    <ele>361</ele>
    <name><![CDATA[Monument prussien 1870]]></name>
  </wpt>
  <wpt lat="49.20388" lon="6.96885">
    <ele>326</ele>
    <name><![CDATA[Parking - Croix du Souvenir français]]></name>
  </wpt>
  <trk>
    <name><![CDATA[Boucle historique sur les hauteurs de Spicheren - Chemin de la mémoire]]></name>
    <trkseg>
      <trkpt lat="49.20389" lon="6.96885">
        <ele>326</ele>
        <time>2018-09-29T11:13:01+02:00</time>
      </trkpt>
      <trkpt lat="49.20334" lon="6.96853">
        <ele>324</ele>
        <time>2018-09-29T11:13:14+02:00</time>
      </trkpt>
      <trkpt lat="49.20316" lon="6.96846">
        <ele>323</ele>
        <time>2018-09-29T11:13:44+02:00</time>
      </trkpt>
      <trkpt lat="49.20292" lon="6.96827">
        <ele>367</ele>
        <time>2018-09-29T11:14:05+02:00</time>
      </trkpt>
      <trkpt lat="49.20254" lon="6.96805">
        <ele>321</ele>
        <time>2018-09-29T11:14:23+02:00</time>
      </trkpt>
      <trkpt lat="49.20252" lon="6.96835">
        <ele>367</ele>
        <time>2018-09-29T11:14:54+02:00</time>
      </trkpt>
      <trkpt lat="49.20249" lon="6.9687">
        <ele>369</ele>
        <time>2018-09-29T11:15:24+02:00</time>
      </trkpt>
      <trkpt lat="49.20246" lon="6.96904">
        <ele>367</ele>
        <time>2018-09-29T11:15:42+02:00</time>
      </trkpt>
      <trkpt lat="49.20243" lon="6.96938">
        <ele>371</ele>
        <time>2018-09-29T11:16:13+02:00</time>
      </trkpt>
      <trkpt lat="49.20244" lon="6.96973">
        <ele>375</ele>
        <time>2018-09-29T11:16:35+02:00</time>
      </trkpt>
      <trkpt lat="49.20253" lon="6.97005">
        <ele>377</ele>
        <time>2018-09-29T11:16:58+02:00</time>
      </trkpt>
      <trkpt lat="49.20252" lon="6.97042">
        <ele>377</ele>
        <time>2018-09-29T11:17:13+02:00</time>
      </trkpt>
      <trkpt lat="49.20251" lon="6.97077">
        <ele>378</ele>
        <time>2018-09-29T11:17:33+02:00</time>
      </trkpt>
      <trkpt lat="49.20248" lon="6.97111">
        <ele>378</ele>
        <time>2018-09-29T11:17:43+02:00</time>
      </trkpt>
      <trkpt lat="49.20243" lon="6.97146">
        <ele>379</ele>
        <time>2018-09-29T11:17:55+02:00</time>
      </trkpt>
      <trkpt lat="49.20242" lon="6.97181">
        <ele>378</ele>
        <time>2018-09-29T11:18:09+02:00</time>
      </trkpt>
      <trkpt lat="49.20242" lon="6.97216">
        <ele>378</ele>
        <time>2018-09-29T11:18:30+02:00</time>
      </trkpt>
      <trkpt lat="49.20243" lon="6.97254">
        <ele>379</ele>
        <time>2018-09-29T11:18:43+02:00</time>
      </trkpt>
      <trkpt lat="49.20247" lon="6.97289">
        <ele>376</ele>
        <time>2018-09-29T11:19:03+02:00</time>
      </trkpt>
      <trkpt lat="49.20246" lon="6.97325">
        <ele>373</ele>
        <time>2018-09-29T11:19:18+02:00</time>
      </trkpt>
      <trkpt lat="49.20244" lon="6.97359">
        <ele>372</ele>
        <time>2018-09-29T11:19:31+02:00</time>
      </trkpt>
      <trkpt lat="49.20245" lon="6.97394">
        <ele>375</ele>
        <time>2018-09-29T11:19:48+02:00</time>
      </trkpt>
      <trkpt lat="49.20243" lon="6.97429">
        <ele>376</ele>
        <time>2018-09-29T11:20:01+02:00</time>
      </trkpt>
      <trkpt lat="49.20245" lon="6.97463">
        <ele>374</ele>
        <time>2018-09-29T11:20:17+02:00</time>
      </trkpt>
      <trkpt lat="49.20243" lon="6.97499">
        <ele>374</ele>
        <time>2018-09-29T11:20:33+02:00</time>
      </trkpt>
      <trkpt lat="49.20246" lon="6.97535">
        <ele>374</ele>
        <time>2018-09-29T11:20:48+02:00</time>
      </trkpt>
      <trkpt lat="49.20246" lon="6.97571">
        <ele>375</ele>
        <time>2018-09-29T11:21:00+02:00</time>
      </trkpt>
      <trkpt lat="49.20246" lon="6.97607">
        <ele>376</ele>
        <time>2018-09-29T11:21:16+02:00</time>
      </trkpt>
      <trkpt lat="49.20245" lon="6.97642">
        <ele>378</ele>
        <time>2018-09-29T11:21:35+02:00</time>
      </trkpt>
      <trkpt lat="49.20248" lon="6.9768">
        <ele>377</ele>
        <time>2018-09-29T11:21:51+02:00</time>
      </trkpt>
      <trkpt lat="49.2025" lon="6.97714">
        <ele>376</ele>
        <time>2018-09-29T11:22:08+02:00</time>
      </trkpt>
      <trkpt lat="49.20251" lon="6.9775">
        <ele>377</ele>
        <time>2018-09-29T11:22:27+02:00</time>
      </trkpt>
      <trkpt lat="49.20251" lon="6.97787">
        <ele>378</ele>
        <time>2018-09-29T11:22:40+02:00</time>
      </trkpt>
      <trkpt lat="49.20258" lon="6.97823">
        <ele>379</ele>
        <time>2018-09-29T11:23:00+02:00</time>
      </trkpt>
      <trkpt lat="49.20257" lon="6.97859">
        <ele>381</ele>
        <time>2018-09-29T11:23:17+02:00</time>
      </trkpt>
      <trkpt lat="49.20259" lon="6.979">
        <ele>381</ele>
        <time>2018-09-29T11:23:26+02:00</time>
      </trkpt>
      <trkpt lat="49.20268" lon="6.97932">
        <ele>380</ele>
        <time>2018-09-29T11:23:39+02:00</time>
      </trkpt>
      <trkpt lat="49.20283" lon="6.97962">
        <ele>376</ele>
        <time>2018-09-29T11:23:57+02:00</time>
      </trkpt>
      <trkpt lat="49.20295" lon="6.97992">
        <ele>374</ele>
        <time>2018-09-29T11:24:13+02:00</time>
      </trkpt>
      <trkpt lat="49.20311" lon="6.98017">
        <ele>373</ele>
        <time>2018-09-29T11:24:30+02:00</time>
      </trkpt>
      <trkpt lat="49.20323" lon="6.98047">
        <ele>371</ele>
        <time>2018-09-29T11:24:43+02:00</time>
      </trkpt>
      <trkpt lat="49.20331" lon="6.9808">
        <ele>370</ele>
        <time>2018-09-29T11:25:00+02:00</time>
      </trkpt>
      <trkpt lat="49.20346" lon="6.98107">
        <ele>368</ele>
        <time>2018-09-29T11:25:12+02:00</time>
      </trkpt>
      <trkpt lat="49.20358" lon="6.98136">
        <ele>371</ele>
        <time>2018-09-29T11:25:23+02:00</time>
      </trkpt>
      <trkpt lat="49.20375" lon="6.9816">
        <ele>374</ele>
        <time>2018-09-29T11:25:35+02:00</time>
      </trkpt>
      <trkpt lat="49.20388" lon="6.9819">
        <ele>377</ele>
        <time>2018-09-29T11:25:49+02:00</time>
      </trkpt>
      <trkpt lat="49.20401" lon="6.9822">
        <ele>379</ele>
        <time>2018-09-29T11:26:06+02:00</time>
      </trkpt>
      <trkpt lat="49.20401" lon="6.98255">
        <ele>379</ele>
        <time>2018-09-29T11:26:33+02:00</time>
      </trkpt>
      <trkpt lat="49.204" lon="6.98289">
        <ele>380</ele>
        <time>2018-09-29T11:26:51+02:00</time>
      </trkpt>
      <trkpt lat="49.20404" lon="6.98325">
        <ele>379</ele>
        <time>2018-09-29T11:27:04+02:00</time>
      </trkpt>
      <trkpt lat="49.20402" lon="6.98363">
        <ele>381</ele>
        <time>2018-09-29T11:27:14+02:00</time>
      </trkpt>
      <trkpt lat="49.20393" lon="6.98395">
        <ele>384</ele>
        <time>2018-09-29T11:27:26+02:00</time>
      </trkpt>
      <trkpt lat="49.2039" lon="6.98431">
        <ele>384</ele>
        <time>2018-09-29T11:27:42+02:00</time>
      </trkpt>
      <trkpt lat="49.20389" lon="6.98466">
        <ele>382</ele>
        <time>2018-09-29T11:27:57+02:00</time>
      </trkpt>
      <trkpt lat="49.20384" lon="6.98501">
        <ele>380</ele>
        <time>2018-09-29T11:28:16+02:00</time>
      </trkpt>
      <trkpt lat="49.2038" lon="6.98536">
        <ele>380</ele>
        <time>2018-09-29T11:28:34+02:00</time>
      </trkpt>
      <trkpt lat="49.20371" lon="6.98567">
        <ele>380</ele>
        <time>2018-09-29T11:28:47+02:00</time>
      </trkpt>
      <trkpt lat="49.20357" lon="6.98598">
        <ele>379</ele>
        <time>2018-09-29T11:29:02+02:00</time>
      </trkpt>
      <trkpt lat="49.20346" lon="6.98629">
        <ele>378</ele>
        <time>2018-09-29T11:29:14+02:00</time>
      </trkpt>
      <trkpt lat="49.20341" lon="6.98665">
        <ele>377</ele>
        <time>2018-09-29T11:29:25+02:00</time>
      </trkpt>
      <trkpt lat="49.20336" lon="6.98698">
        <ele>374</ele>
        <time>2018-09-29T11:29:39+02:00</time>
      </trkpt>
      <trkpt lat="49.20328" lon="6.98731">
        <ele>373</ele>
        <time>2018-09-29T11:29:58+02:00</time>
      </trkpt>
      <trkpt lat="49.20318" lon="6.98762">
        <ele>373</ele>
        <time>2018-09-29T11:30:11+02:00</time>
      </trkpt>
      <trkpt lat="49.20305" lon="6.98792">
        <ele>376</ele>
        <time>2018-09-29T11:30:31+02:00</time>
      </trkpt>
      <trkpt lat="49.20287" lon="6.98816">
        <ele>378</ele>
        <time>2018-09-29T11:30:48+02:00</time>
      </trkpt>
      <trkpt lat="49.2027" lon="6.9884">
        <ele>381</ele>
        <time>2018-09-29T11:31:04+02:00</time>
      </trkpt>
      <trkpt lat="49.20254" lon="6.98869">
        <ele>383</ele>
        <time>2018-09-29T11:31:23+02:00</time>
      </trkpt>
      <trkpt lat="49.20237" lon="6.98893">
        <ele>385</ele>
        <time>2018-09-29T11:31:41+02:00</time>
      </trkpt>
      <trkpt lat="49.20226" lon="6.98925">
        <ele>385</ele>
        <time>2018-09-29T11:31:54+02:00</time>
      </trkpt>
      <trkpt lat="49.20211" lon="6.98952">
        <ele>385</ele>
        <time>2018-09-29T11:32:09+02:00</time>
      </trkpt>
      <trkpt lat="49.20198" lon="6.98981">
        <ele>388</ele>
        <time>2018-09-29T11:32:28+02:00</time>
      </trkpt>
      <trkpt lat="49.2018" lon="6.99004">
        <ele>384</ele>
        <time>2018-09-29T11:32:50+02:00</time>
      </trkpt>
      <trkpt lat="49.20181" lon="6.99039">
        <ele>382</ele>
        <time>2018-09-29T11:32:58+02:00</time>
      </trkpt>
      <trkpt lat="49.20182" lon="6.99077">
        <ele>384</ele>
        <time>2018-09-29T11:33:05+02:00</time>
      </trkpt>
      <trkpt lat="49.20185" lon="6.99111">
        <ele>386</ele>
        <time>2018-09-29T11:33:15+02:00</time>
      </trkpt>
      <trkpt lat="49.20193" lon="6.99145">
        <ele>388</ele>
        <time>2018-09-29T11:33:29+02:00</time>
      </trkpt>
      <trkpt lat="49.20203" lon="6.99178">
        <ele>389</ele>
        <time>2018-09-29T11:33:45+02:00</time>
      </trkpt>
      <trkpt lat="49.2021" lon="6.99212">
        <ele>390</ele>
        <time>2018-09-29T11:34:01+02:00</time>
      </trkpt>
      <trkpt lat="49.20216" lon="6.99247">
        <ele>390</ele>
        <time>2018-09-29T11:34:15+02:00</time>
      </trkpt>
      <trkpt lat="49.20228" lon="6.99278">
        <ele>391</ele>
        <time>2018-09-29T11:34:29+02:00</time>
      </trkpt>
      <trkpt lat="49.20231" lon="6.99312">
        <ele>392</ele>
        <time>2018-09-29T11:34:42+02:00</time>
      </trkpt>
      <trkpt lat="49.20238" lon="6.99346">
        <ele>393</ele>
        <time>2018-09-29T11:34:57+02:00</time>
      </trkpt>
      <trkpt lat="49.20247" lon="6.99378">
        <ele>394</ele>
        <time>2018-09-29T11:35:10+02:00</time>
      </trkpt>
      <trkpt lat="49.20252" lon="6.99411">
        <ele>395</ele>
        <time>2018-09-29T11:35:26+02:00</time>
      </trkpt>
      <trkpt lat="49.20265" lon="6.99443">
        <ele>395</ele>
        <time>2018-09-29T11:35:44+02:00</time>
      </trkpt>
      <trkpt lat="49.20274" lon="6.99477">
        <ele>394</ele>
        <time>2018-09-29T11:35:58+02:00</time>
      </trkpt>
      <trkpt lat="49.20285" lon="6.99508">
        <ele>392</ele>
        <time>2018-09-29T11:36:13+02:00</time>
      </trkpt>
      <trkpt lat="49.20295" lon="6.99539">
        <ele>390</ele>
        <time>2018-09-29T11:36:27+02:00</time>
      </trkpt>
      <trkpt lat="49.20298" lon="6.99574">
        <ele>389</ele>
        <time>2018-09-29T11:36:36+02:00</time>
      </trkpt>
      <trkpt lat="49.20283" lon="6.996">
        <ele>391</ele>
        <time>2018-09-29T11:36:52+02:00</time>
      </trkpt>
      <trkpt lat="49.20264" lon="6.9962">
        <ele>393</ele>
        <time>2018-09-29T11:37:07+02:00</time>
      </trkpt>
      <trkpt lat="49.20241" lon="6.99631">
        <ele>393</ele>
        <time>2018-09-29T11:37:21+02:00</time>
      </trkpt>
      <trkpt lat="49.2022" lon="6.99646">
        <ele>394</ele>
        <time>2018-09-29T11:37:37+02:00</time>
      </trkpt>
      <trkpt lat="49.20199" lon="6.99662">
        <ele>393</ele>
        <time>2018-09-29T11:37:51+02:00</time>
      </trkpt>
      <trkpt lat="49.20178" lon="6.99678">
        <ele>391</ele>
        <time>2018-09-29T11:38:09+02:00</time>
      </trkpt>
      <trkpt lat="49.20157" lon="6.9969">
        <ele>390</ele>
        <time>2018-09-29T11:38:21+02:00</time>
      </trkpt>
      <trkpt lat="49.20135" lon="6.99696">
        <ele>388</ele>
        <time>2018-09-29T11:38:32+02:00</time>
      </trkpt>
      <trkpt lat="49.20111" lon="6.99706">
        <ele>387</ele>
        <time>2018-09-29T11:38:52+02:00</time>
      </trkpt>
      <trkpt lat="49.20089" lon="6.997">
        <ele>386</ele>
        <time>2018-09-29T11:39:02+02:00</time>
      </trkpt>
      <trkpt lat="49.20065" lon="6.99696">
        <ele>384</ele>
        <time>2018-09-29T11:39:15+02:00</time>
      </trkpt>
      <trkpt lat="49.20042" lon="6.99696">
        <ele>382</ele>
        <time>2018-09-29T11:39:29+02:00</time>
      </trkpt>
      <trkpt lat="49.20018" lon="6.99695">
        <ele>383</ele>
        <time>2018-09-29T11:39:42+02:00</time>
      </trkpt>
      <trkpt lat="49.19995" lon="6.99702">
        <ele>381</ele>
        <time>2018-09-29T11:39:58+02:00</time>
      </trkpt>
      <trkpt lat="49.19972" lon="6.99702">
        <ele>377</ele>
        <time>2018-09-29T11:40:14+02:00</time>
      </trkpt>
      <trkpt lat="49.19949" lon="6.99707">
        <ele>374</ele>
        <time>2018-09-29T11:40:29+02:00</time>
      </trkpt>
      <trkpt lat="49.19926" lon="6.99713">
        <ele>373</ele>
        <time>2018-09-29T11:40:43+02:00</time>
      </trkpt>
      <trkpt lat="49.19904" lon="6.99721">
        <ele>375</ele>
        <time>2018-09-29T11:40:54+02:00</time>
      </trkpt>
      <trkpt lat="49.19882" lon="6.99731">
        <ele>377</ele>
        <time>2018-09-29T11:41:08+02:00</time>
      </trkpt>
      <trkpt lat="49.19862" lon="6.99749">
        <ele>380</ele>
        <time>2018-09-29T11:41:24+02:00</time>
      </trkpt>
      <trkpt lat="49.19839" lon="6.99757">
        <ele>381</ele>
        <time>2018-09-29T11:41:43+02:00</time>
      </trkpt>
      <trkpt lat="49.19819" lon="6.99773">
        <ele>379</ele>
        <time>2018-09-29T11:41:55+02:00</time>
      </trkpt>
      <trkpt lat="49.198" lon="6.99793">
        <ele>378</ele>
        <time>2018-09-29T11:42:07+02:00</time>
      </trkpt>
      <trkpt lat="49.19777" lon="6.99805">
        <ele>378</ele>
        <time>2018-09-29T11:42:21+02:00</time>
      </trkpt>
      <trkpt lat="49.19758" lon="6.99829">
        <ele>376</ele>
        <time>2018-09-29T11:42:35+02:00</time>
      </trkpt>
      <trkpt lat="49.1974" lon="6.9985">
        <ele>374</ele>
        <time>2018-09-29T11:42:46+02:00</time>
      </trkpt>
      <trkpt lat="49.19722" lon="6.99874">
        <ele>372</ele>
        <time>2018-09-29T11:43:01+02:00</time>
      </trkpt>
      <trkpt lat="49.19704" lon="6.99899">
        <ele>370</ele>
        <time>2018-09-29T11:43:18+02:00</time>
      </trkpt>
      <trkpt lat="49.19689" lon="6.99927">
        <ele>369</ele>
        <time>2018-09-29T11:43:30+02:00</time>
      </trkpt>
      <trkpt lat="49.19669" lon="6.99946">
        <ele>369</ele>
        <time>2018-09-29T11:43:44+02:00</time>
      </trkpt>
      <trkpt lat="49.19657" lon="6.99976">
        <ele>370</ele>
        <time>2018-09-29T11:43:58+02:00</time>
      </trkpt>
      <trkpt lat="49.19648" lon="7.00008">
        <ele>369</ele>
        <time>2018-09-29T11:44:12+02:00</time>
      </trkpt>
      <trkpt lat="49.19647" lon="7.00043">
        <ele>366</ele>
        <time>2018-09-29T11:44:26+02:00</time>
      </trkpt>
      <trkpt lat="49.19644" lon="7.00078">
        <ele>365</ele>
        <time>2018-09-29T11:44:39+02:00</time>
      </trkpt>
      <trkpt lat="49.19648" lon="7.00114">
        <ele>365</ele>
        <time>2018-09-29T11:44:52+02:00</time>
      </trkpt>
      <trkpt lat="49.19644" lon="7.00149">
        <ele>365</ele>
        <time>2018-09-29T11:45:08+02:00</time>
      </trkpt>
      <trkpt lat="49.19637" lon="7.00183">
        <ele>366</ele>
        <time>2018-09-29T11:45:24+02:00</time>
      </trkpt>
      <trkpt lat="49.1963" lon="7.00216">
        <ele>367</ele>
        <time>2018-09-29T11:45:37+02:00</time>
      </trkpt>
      <trkpt lat="49.19629" lon="7.00251">
        <ele>366</ele>
        <time>2018-09-29T11:45:53+02:00</time>
      </trkpt>
      <trkpt lat="49.19624" lon="7.00286">
        <ele>367</ele>
        <time>2018-09-29T11:46:06+02:00</time>
      </trkpt>
      <trkpt lat="49.19616" lon="7.00318">
        <ele>367</ele>
        <time>2018-09-29T11:46:16+02:00</time>
      </trkpt>
      <trkpt lat="49.19616" lon="7.00355">
        <ele>368</ele>
        <time>2018-09-29T11:46:32+02:00</time>
      </trkpt>
      <trkpt lat="49.1961" lon="7.0039">
        <ele>368</ele>
        <time>2018-09-29T11:46:47+02:00</time>
      </trkpt>
      <trkpt lat="49.19606" lon="7.00425">
        <ele>368</ele>
        <time>2018-09-29T11:47:02+02:00</time>
      </trkpt>
      <trkpt lat="49.19601" lon="7.0046">
        <ele>367</ele>
        <time>2018-09-29T11:47:16+02:00</time>
      </trkpt>
      <trkpt lat="49.196" lon="7.00496">
        <ele>368</ele>
        <time>2018-09-29T11:47:30+02:00</time>
      </trkpt>
      <trkpt lat="49.196" lon="7.0053">
        <ele>368</ele>
        <time>2018-09-29T11:47:45+02:00</time>
      </trkpt>
      <trkpt lat="49.19595" lon="7.00566">
        <ele>367</ele>
        <time>2018-09-29T11:47:57+02:00</time>
      </trkpt>
      <trkpt lat="49.19592" lon="7.006">
        <ele>366</ele>
        <time>2018-09-29T11:48:10+02:00</time>
      </trkpt>
      <trkpt lat="49.19589" lon="7.00635">
        <ele>363</ele>
        <time>2018-09-29T11:48:28+02:00</time>
      </trkpt>
      <trkpt lat="49.19587" lon="7.00671">
        <ele>363</ele>
        <time>2018-09-29T11:48:39+02:00</time>
      </trkpt>
      <trkpt lat="49.19589" lon="7.00707">
        <ele>360</ele>
        <time>2018-09-29T11:48:53+02:00</time>
      </trkpt>
      <trkpt lat="49.19589" lon="7.00742">
        <ele>357</ele>
        <time>2018-09-29T11:49:10+02:00</time>
      </trkpt>
      <trkpt lat="49.19588" lon="7.00777">
        <ele>356</ele>
        <time>2018-09-29T11:49:23+02:00</time>
      </trkpt>
      <trkpt lat="49.1959" lon="7.00811">
        <ele>355</ele>
        <time>2018-09-29T11:49:37+02:00</time>
      </trkpt>
      <trkpt lat="49.1959" lon="7.00848">
        <ele>352</ele>
        <time>2018-09-29T11:49:51+02:00</time>
      </trkpt>
      <trkpt lat="49.19592" lon="7.00884">
        <ele>348</ele>
        <time>2018-09-29T11:50:09+02:00</time>
      </trkpt>
      <trkpt lat="49.19591" lon="7.0092">
        <ele>346</ele>
        <time>2018-09-29T11:50:29+02:00</time>
      </trkpt>
      <trkpt lat="49.19596" lon="7.00956">
        <ele>344</ele>
        <time>2018-09-29T11:50:46+02:00</time>
      </trkpt>
      <trkpt lat="49.19598" lon="7.00993">
        <ele>342</ele>
        <time>2018-09-29T11:50:56+02:00</time>
      </trkpt>
      <trkpt lat="49.19597" lon="7.01028">
        <ele>341</ele>
        <time>2018-09-29T11:51:05+02:00</time>
      </trkpt>
      <trkpt lat="49.19597" lon="7.01065">
        <ele>340</ele>
        <time>2018-09-29T11:51:20+02:00</time>
      </trkpt>
      <trkpt lat="49.196" lon="7.01101">
        <ele>338</ele>
        <time>2018-09-29T11:51:34+02:00</time>
      </trkpt>
      <trkpt lat="49.19599" lon="7.01136">
        <ele>337</ele>
        <time>2018-09-29T11:51:51+02:00</time>
      </trkpt>
      <trkpt lat="49.19596" lon="7.01171">
        <ele>336</ele>
        <time>2018-09-29T11:52:04+02:00</time>
      </trkpt>
      <trkpt lat="49.19599" lon="7.01207">
        <ele>330</ele>
        <time>2018-09-29T11:52:28+02:00</time>
      </trkpt>
      <trkpt lat="49.19617" lon="7.01231">
        <ele>324</ele>
        <time>2018-09-29T11:52:48+02:00</time>
      </trkpt>
      <trkpt lat="49.19634" lon="7.01209">
        <ele>321</ele>
        <time>2018-09-29T11:53:06+02:00</time>
      </trkpt>
      <trkpt lat="49.19639" lon="7.01174">
        <ele>318</ele>
        <time>2018-09-29T11:53:23+02:00</time>
      </trkpt>
      <trkpt lat="49.19644" lon="7.01139">
        <ele>315</ele>
        <time>2018-09-29T11:53:39+02:00</time>
      </trkpt>
      <trkpt lat="49.19649" lon="7.01106">
        <ele>313</ele>
        <time>2018-09-29T11:53:52+02:00</time>
      </trkpt>
      <trkpt lat="49.1966" lon="7.01072">
        <ele>311</ele>
        <time>2018-09-29T11:54:07+02:00</time>
      </trkpt>
      <trkpt lat="49.19667" lon="7.01039">
        <ele>310</ele>
        <time>2018-09-29T11:54:23+02:00</time>
      </trkpt>
      <trkpt lat="49.19679" lon="7.01008">
        <ele>308</ele>
        <time>2018-09-29T11:54:40+02:00</time>
      </trkpt>
      <trkpt lat="49.19691" lon="7.00979">
        <ele>305</ele>
        <time>2018-09-29T11:54:55+02:00</time>
      </trkpt>
      <trkpt lat="49.19703" lon="7.00947">
        <ele>300</ele>
        <time>2018-09-29T11:55:12+02:00</time>
      </trkpt>
      <trkpt lat="49.19714" lon="7.00917">
        <ele>298</ele>
        <time>2018-09-29T11:55:24+02:00</time>
      </trkpt>
      <trkpt lat="49.19729" lon="7.00887">
        <ele>296</ele>
        <time>2018-09-29T11:55:36+02:00</time>
      </trkpt>
      <trkpt lat="49.19739" lon="7.00855">
        <ele>294</ele>
        <time>2018-09-29T11:55:48+02:00</time>
      </trkpt>
      <trkpt lat="49.19742" lon="7.00821">
        <ele>292</ele>
        <time>2018-09-29T11:56:04+02:00</time>
      </trkpt>
      <trkpt lat="49.1975" lon="7.00787">
        <ele>293</ele>
        <time>2018-09-29T11:56:16+02:00</time>
      </trkpt>
      <trkpt lat="49.19771" lon="7.00768">
        <ele>296</ele>
        <time>2018-09-29T11:56:33+02:00</time>
      </trkpt>
      <trkpt lat="49.1979" lon="7.0075">
        <ele>297</ele>
        <time>2018-09-29T11:56:47+02:00</time>
      </trkpt>
      <trkpt lat="49.19801" lon="7.00717">
        <ele>296</ele>
        <time>2018-09-29T11:56:59+02:00</time>
      </trkpt>
      <trkpt lat="49.19796" lon="7.00682">
        <ele>293</ele>
        <time>2018-09-29T11:57:17+02:00</time>
      </trkpt>
      <trkpt lat="49.19795" lon="7.00647">
        <ele>293</ele>
        <time>2018-09-29T11:57:27+02:00</time>
      </trkpt>
      <trkpt lat="49.198" lon="7.00612">
        <ele>292</ele>
        <time>2018-09-29T11:57:41+02:00</time>
      </trkpt>
      <trkpt lat="49.19803" lon="7.00577">
        <ele>293</ele>
        <time>2018-09-29T11:57:55+02:00</time>
      </trkpt>
      <trkpt lat="49.19804" lon="7.00542">
        <ele>294</ele>
        <time>2018-09-29T11:58:12+02:00</time>
      </trkpt>
      <trkpt lat="49.19816" lon="7.0051">
        <ele>295</ele>
        <time>2018-09-29T11:58:27+02:00</time>
      </trkpt>
      <trkpt lat="49.19824" lon="7.00477">
        <ele>297</ele>
        <time>2018-09-29T11:58:41+02:00</time>
      </trkpt>
      <trkpt lat="49.19833" lon="7.00445">
        <ele>300</ele>
        <time>2018-09-29T11:59:00+02:00</time>
      </trkpt>
      <trkpt lat="49.19838" lon="7.00409">
        <ele>301</ele>
        <time>2018-09-29T11:59:15+02:00</time>
      </trkpt>
      <trkpt lat="49.19833" lon="7.00374">
        <ele>301</ele>
        <time>2018-09-29T11:59:30+02:00</time>
      </trkpt>
      <trkpt lat="49.19821" lon="7.00341">
        <ele>302</ele>
        <time>2018-09-29T11:59:44+02:00</time>
      </trkpt>
      <trkpt lat="49.19808" lon="7.00312">
        <ele>304</ele>
        <time>2018-09-29T11:59:59+02:00</time>
      </trkpt>
      <trkpt lat="49.19799" lon="7.00281">
        <ele>306</ele>
        <time>2018-09-29T12:00:11+02:00</time>
      </trkpt>
      <trkpt lat="49.19801" lon="7.00246">
        <ele>310</ele>
        <time>2018-09-29T12:00:27+02:00</time>
      </trkpt>
      <trkpt lat="49.19807" lon="7.0021">
        <ele>313</ele>
        <time>2018-09-29T12:00:43+02:00</time>
      </trkpt>
      <trkpt lat="49.19808" lon="7.00176">
        <ele>316</ele>
        <time>2018-09-29T12:00:58+02:00</time>
      </trkpt>
      <trkpt lat="49.19811" lon="7.00142">
        <ele>320</ele>
        <time>2018-09-29T12:01:14+02:00</time>
      </trkpt>
      <trkpt lat="49.19812" lon="7.00107">
        <ele>325</ele>
        <time>2018-09-29T12:01:35+02:00</time>
      </trkpt>
      <trkpt lat="49.19814" lon="7.00072">
        <ele>330</ele>
        <time>2018-09-29T12:01:54+02:00</time>
      </trkpt>
      <trkpt lat="49.19825" lon="7.0004">
        <ele>330</ele>
        <time>2018-09-29T12:02:07+02:00</time>
      </trkpt>
      <trkpt lat="49.19839" lon="7.00012">
        <ele>329</ele>
        <time>2018-09-29T12:02:23+02:00</time>
      </trkpt>
      <trkpt lat="49.19855" lon="6.99986">
        <ele>326</ele>
        <time>2018-09-29T12:02:45+02:00</time>
      </trkpt>
      <trkpt lat="49.19877" lon="6.99979">
        <ele>327</ele>
        <time>2018-09-29T12:03:03+02:00</time>
      </trkpt>
      <trkpt lat="49.19901" lon="6.99991">
        <ele>327</ele>
        <time>2018-09-29T12:03:11+02:00</time>
      </trkpt>
      <trkpt lat="49.19924" lon="7.00011">
        <ele>328</ele>
        <time>2018-09-29T12:03:33+02:00</time>
      </trkpt>
      <trkpt lat="49.19939" lon="7.00037">
        <ele>329</ele>
        <time>2018-09-29T12:03:49+02:00</time>
      </trkpt>
      <trkpt lat="49.19957" lon="7.00059">
        <ele>330</ele>
        <time>2018-09-29T12:04:02+02:00</time>
      </trkpt>
      <trkpt lat="49.19975" lon="7.0008">
        <ele>329</ele>
        <time>2018-09-29T12:04:12+02:00</time>
      </trkpt>
      <trkpt lat="49.19994" lon="7.00101">
        <ele>332</ele>
        <time>2018-09-29T12:04:25+02:00</time>
      </trkpt>
      <trkpt lat="49.20015" lon="7.00083">
        <ele>330</ele>
        <time>2018-09-29T12:04:46+02:00</time>
      </trkpt>
      <trkpt lat="49.20034" lon="7.00062">
        <ele>325</ele>
        <time>2018-09-29T12:05:11+02:00</time>
      </trkpt>
      <trkpt lat="49.20053" lon="7.00041">
        <ele>322</ele>
        <time>2018-09-29T12:05:30+02:00</time>
      </trkpt>
      <trkpt lat="49.20073" lon="7.00026">
        <ele>323</ele>
        <time>2018-09-29T12:05:43+02:00</time>
      </trkpt>
      <trkpt lat="49.20093" lon="7.00009">
        <ele>324</ele>
        <time>2018-09-29T12:05:58+02:00</time>
      </trkpt>
      <trkpt lat="49.20113" lon="6.99985">
        <ele>328</ele>
        <time>2018-09-29T12:06:08+02:00</time>
      </trkpt>
      <trkpt lat="49.20136" lon="6.99983">
        <ele>332</ele>
        <time>2018-09-29T12:06:35+02:00</time>
      </trkpt>
      <trkpt lat="49.20159" lon="6.99984">
        <ele>332</ele>
        <time>2018-09-29T12:06:40+02:00</time>
      </trkpt>
      <trkpt lat="49.20182" lon="6.99975">
        <ele>331</ele>
        <time>2018-09-29T12:06:48+02:00</time>
      </trkpt>
      <trkpt lat="49.20203" lon="6.99988">
        <ele>330</ele>
        <time>2018-09-29T12:07:10+02:00</time>
      </trkpt>
      <trkpt lat="49.20221" lon="7.00011">
        <ele>332</ele>
        <time>2018-09-29T12:07:27+02:00</time>
      </trkpt>
      <trkpt lat="49.20236" lon="7.00037">
        <ele>333</ele>
        <time>2018-09-29T12:07:38+02:00</time>
      </trkpt>
      <trkpt lat="49.20245" lon="7.00069">
        <ele>336</ele>
        <time>2018-09-29T12:07:53+02:00</time>
      </trkpt>
      <trkpt lat="49.20251" lon="7.00107">
        <ele>335</ele>
        <time>2018-09-29T12:08:35+02:00</time>
      </trkpt>
      <trkpt lat="49.2025" lon="7.00142">
        <ele>335</ele>
        <time>2018-09-29T12:08:47+02:00</time>
      </trkpt>
      <trkpt lat="49.20256" lon="7.00175">
        <ele>333</ele>
        <time>2018-09-29T12:08:56+02:00</time>
      </trkpt>
      <trkpt lat="49.20241" lon="7.00201">
        <ele>331</ele>
        <time>2018-09-29T12:09:17+02:00</time>
      </trkpt>
      <trkpt lat="49.20227" lon="7.00232">
        <ele>328</ele>
        <time>2018-09-29T12:09:44+02:00</time>
      </trkpt>
      <trkpt lat="49.20218" lon="7.00263">
        <ele>328</ele>
        <time>2018-09-29T12:09:57+02:00</time>
      </trkpt>
      <trkpt lat="49.20204" lon="7.00291">
        <ele>328</ele>
        <time>2018-09-29T12:10:18+02:00</time>
      </trkpt>
      <trkpt lat="49.20186" lon="7.00313">
        <ele>330</ele>
        <time>2018-09-29T12:10:29+02:00</time>
      </trkpt>
      <trkpt lat="49.2018" lon="7.00346">
        <ele>328</ele>
        <time>2018-09-29T12:10:45+02:00</time>
      </trkpt>
      <trkpt lat="49.20168" lon="7.00377">
        <ele>327</ele>
        <time>2018-09-29T12:11:03+02:00</time>
      </trkpt>
      <trkpt lat="49.20158" lon="7.00409">
        <ele>327</ele>
        <time>2018-09-29T12:11:20+02:00</time>
      </trkpt>
      <trkpt lat="49.20151" lon="7.00442">
        <ele>326</ele>
        <time>2018-09-29T12:11:39+02:00</time>
      </trkpt>
      <trkpt lat="49.20142" lon="7.00474">
        <ele>328</ele>
        <time>2018-09-29T12:11:54+02:00</time>
      </trkpt>
      <trkpt lat="49.20136" lon="7.00508">
        <ele>327</ele>
        <time>2018-09-29T12:12:17+02:00</time>
      </trkpt>
      <trkpt lat="49.20131" lon="7.00547">
        <ele>323</ele>
        <time>2018-09-29T12:12:38+02:00</time>
      </trkpt>
      <trkpt lat="49.20126" lon="7.00582">
        <ele>324</ele>
        <time>2018-09-29T12:12:43+02:00</time>
      </trkpt>
      <trkpt lat="49.20123" lon="7.00617">
        <ele>327</ele>
        <time>2018-09-29T12:12:57+02:00</time>
      </trkpt>
      <trkpt lat="49.2013" lon="7.00656">
        <ele>330</ele>
        <time>2018-09-29T12:13:10+02:00</time>
      </trkpt>
      <trkpt lat="49.20133" lon="7.00691">
        <ele>337</ele>
        <time>2018-09-29T12:13:29+02:00</time>
      </trkpt>
      <trkpt lat="49.20125" lon="7.00724">
        <ele>337</ele>
        <time>2018-09-29T12:13:46+02:00</time>
      </trkpt>
      <trkpt lat="49.20117" lon="7.0076">
        <ele>338</ele>
        <time>2018-09-29T12:14:04+02:00</time>
      </trkpt>
      <trkpt lat="49.20111" lon="7.00794">
        <ele>340</ele>
        <time>2018-09-29T12:14:19+02:00</time>
      </trkpt>
      <trkpt lat="49.20122" lon="7.00824">
        <ele>341</ele>
        <time>2018-09-29T12:14:34+02:00</time>
      </trkpt>
      <trkpt lat="49.20133" lon="7.00855">
        <ele>339</ele>
        <time>2018-09-29T12:14:44+02:00</time>
      </trkpt>
      <trkpt lat="49.20142" lon="7.00887">
        <ele>339</ele>
        <time>2018-09-29T12:14:59+02:00</time>
      </trkpt>
      <trkpt lat="49.20156" lon="7.00915">
        <ele>341</ele>
        <time>2018-09-29T12:15:11+02:00</time>
      </trkpt>
      <trkpt lat="49.20175" lon="7.00938">
        <ele>342</ele>
        <time>2018-09-29T12:15:24+02:00</time>
      </trkpt>
      <trkpt lat="49.20186" lon="7.0097">
        <ele>346</ele>
        <time>2018-09-29T12:15:40+02:00</time>
      </trkpt>
      <trkpt lat="49.20191" lon="7.01005">
        <ele>348</ele>
        <time>2018-09-29T12:15:54+02:00</time>
      </trkpt>
      <trkpt lat="49.20187" lon="7.01041">
        <ele>350</ele>
        <time>2018-09-29T12:16:09+02:00</time>
      </trkpt>
      <trkpt lat="49.2017" lon="7.01066">
        <ele>350</ele>
        <time>2018-09-29T12:16:26+02:00</time>
      </trkpt>
      <trkpt lat="49.20156" lon="7.01092">
        <ele>350</ele>
        <time>2018-09-29T12:16:40+02:00</time>
      </trkpt>
      <trkpt lat="49.20141" lon="7.01118">
        <ele>349</ele>
        <time>2018-09-29T12:16:56+02:00</time>
      </trkpt>
      <trkpt lat="49.20128" lon="7.01147">
        <ele>347</ele>
        <time>2018-09-29T12:17:12+02:00</time>
      </trkpt>
      <trkpt lat="49.20113" lon="7.01174">
        <ele>346</ele>
        <time>2018-09-29T12:17:26+02:00</time>
      </trkpt>
      <trkpt lat="49.20102" lon="7.01205">
        <ele>343</ele>
        <time>2018-09-29T12:17:41+02:00</time>
      </trkpt>
      <trkpt lat="49.2009" lon="7.01235">
        <ele>341</ele>
        <time>2018-09-29T12:17:57+02:00</time>
      </trkpt>
      <trkpt lat="49.20087" lon="7.01271">
        <ele>337</ele>
        <time>2018-09-29T12:18:15+02:00</time>
      </trkpt>
      <trkpt lat="49.20107" lon="7.0129">
        <ele>334</ele>
        <time>2018-09-29T12:18:34+02:00</time>
      </trkpt>
      <trkpt lat="49.2013" lon="7.01287">
        <ele>334</ele>
        <time>2018-09-29T12:18:45+02:00</time>
      </trkpt>
      <trkpt lat="49.20153" lon="7.01291">
        <ele>332</ele>
        <time>2018-09-29T12:19:08+02:00</time>
      </trkpt>
      <trkpt lat="49.20173" lon="7.01309">
        <ele>330</ele>
        <time>2018-09-29T12:19:19+02:00</time>
      </trkpt>
      <trkpt lat="49.2019" lon="7.01332">
        <ele>327</ele>
        <time>2018-09-29T12:19:39+02:00</time>
      </trkpt>
      <trkpt lat="49.20206" lon="7.0136">
        <ele>320</ele>
        <time>2018-09-29T12:20:02+02:00</time>
      </trkpt>
      <trkpt lat="49.20223" lon="7.01385">
        <ele>315</ele>
        <time>2018-09-29T12:20:17+02:00</time>
      </trkpt>
      <trkpt lat="49.20237" lon="7.01413">
        <ele>310</ele>
        <time>2018-09-29T12:20:31+02:00</time>
      </trkpt>
      <trkpt lat="49.20258" lon="7.01429">
        <ele>310</ele>
        <time>2018-09-29T12:20:49+02:00</time>
      </trkpt>
      <trkpt lat="49.20281" lon="7.01426">
        <ele>314</ele>
        <time>2018-09-29T12:21:11+02:00</time>
      </trkpt>
      <trkpt lat="49.20301" lon="7.01408">
        <ele>316</ele>
        <time>2018-09-29T12:21:29+02:00</time>
      </trkpt>
      <trkpt lat="49.20317" lon="7.01382">
        <ele>319</ele>
        <time>2018-09-29T12:21:50+02:00</time>
      </trkpt>
      <trkpt lat="49.20339" lon="7.01368">
        <ele>321</ele>
        <time>2018-09-29T12:22:03+02:00</time>
      </trkpt>
      <trkpt lat="49.20359" lon="7.01349">
        <ele>318</ele>
        <time>2018-09-29T12:22:26+02:00</time>
      </trkpt>
      <trkpt lat="49.20381" lon="7.01337">
        <ele>321</ele>
        <time>2018-09-29T12:22:39+02:00</time>
      </trkpt>
      <trkpt lat="49.20405" lon="7.0132">
        <ele>322</ele>
        <time>2018-09-29T12:22:44+02:00</time>
      </trkpt>
      <trkpt lat="49.20425" lon="7.01304">
        <ele>328</ele>
        <time>2018-09-29T12:22:56+02:00</time>
      </trkpt>
      <trkpt lat="49.2044" lon="7.01333">
        <ele>331</ele>
        <time>2018-09-29T12:23:14+02:00</time>
      </trkpt>
      <trkpt lat="49.20436" lon="7.01369">
        <ele>329</ele>
        <time>2018-09-29T12:23:33+02:00</time>
      </trkpt>
      <trkpt lat="49.20442" lon="7.01403">
        <ele>324</ele>
        <time>2018-09-29T12:23:53+02:00</time>
      </trkpt>
      <trkpt lat="49.20444" lon="7.01439">
        <ele>321</ele>
        <time>2018-09-29T12:24:10+02:00</time>
      </trkpt>
      <trkpt lat="49.20458" lon="7.01468">
        <ele>319</ele>
        <time>2018-09-29T12:24:24+02:00</time>
      </trkpt>
      <trkpt lat="49.20468" lon="7.01499">
        <ele>318</ele>
        <time>2018-09-29T12:24:36+02:00</time>
      </trkpt>
      <trkpt lat="49.20486" lon="7.01523">
        <ele>316</ele>
        <time>2018-09-29T12:24:50+02:00</time>
      </trkpt>
      <trkpt lat="49.20507" lon="7.01538">
        <ele>313</ele>
        <time>2018-09-29T12:25:09+02:00</time>
      </trkpt>
      <trkpt lat="49.2053" lon="7.01543">
        <ele>314</ele>
        <time>2018-09-29T12:25:23+02:00</time>
      </trkpt>
      <trkpt lat="49.20553" lon="7.0155">
        <ele>317</ele>
        <time>2018-09-29T12:25:38+02:00</time>
      </trkpt>
      <trkpt lat="49.20574" lon="7.01558">
        <ele>322</ele>
        <time>2018-09-29T12:25:56+02:00</time>
      </trkpt>
      <trkpt lat="49.20596" lon="7.0154">
        <ele>324</ele>
        <time>2018-09-29T12:26:10+02:00</time>
      </trkpt>
      <trkpt lat="49.20615" lon="7.01521">
        <ele>327</ele>
        <time>2018-09-29T12:26:21+02:00</time>
      </trkpt>
      <trkpt lat="49.20632" lon="7.01498">
        <ele>332</ele>
        <time>2018-09-29T12:26:35+02:00</time>
      </trkpt>
      <trkpt lat="49.20648" lon="7.01472">
        <ele>339</ele>
        <time>2018-09-29T12:26:54+02:00</time>
      </trkpt>
      <trkpt lat="49.20662" lon="7.01443">
        <ele>343</ele>
        <time>2018-09-29T12:27:12+02:00</time>
      </trkpt>
      <trkpt lat="49.20676" lon="7.01414">
        <ele>345</ele>
        <time>2018-09-29T12:27:26+02:00</time>
      </trkpt>
      <trkpt lat="49.20691" lon="7.01387">
        <ele>344</ele>
        <time>2018-09-29T12:27:37+02:00</time>
      </trkpt>
      <trkpt lat="49.20707" lon="7.01358">
        <ele>345</ele>
        <time>2018-09-29T12:27:48+02:00</time>
      </trkpt>
      <trkpt lat="49.20716" lon="7.01324">
        <ele>347</ele>
        <time>2018-09-29T12:28:01+02:00</time>
      </trkpt>
      <trkpt lat="49.20724" lon="7.01292">
        <ele>348</ele>
        <time>2018-09-29T12:28:16+02:00</time>
      </trkpt>
      <trkpt lat="49.20737" lon="7.01262">
        <ele>348</ele>
        <time>2018-09-29T12:28:34+02:00</time>
      </trkpt>
      <trkpt lat="49.20742" lon="7.01227">
        <ele>350</ele>
        <time>2018-09-29T12:28:44+02:00</time>
      </trkpt>
      <trkpt lat="49.20749" lon="7.01193">
        <ele>351</ele>
        <time>2018-09-29T12:29:00+02:00</time>
      </trkpt>
      <trkpt lat="49.2076" lon="7.01162">
        <ele>355</ele>
        <time>2018-09-29T12:29:19+02:00</time>
      </trkpt>
      <trkpt lat="49.20771" lon="7.01129">
        <ele>354</ele>
        <time>2018-09-29T12:29:33+02:00</time>
      </trkpt>
      <trkpt lat="49.2077" lon="7.01094">
        <ele>353</ele>
        <time>2018-09-29T12:29:45+02:00</time>
      </trkpt>
      <trkpt lat="49.20776" lon="7.0106">
        <ele>354</ele>
        <time>2018-09-29T12:29:57+02:00</time>
      </trkpt>
      <trkpt lat="49.20785" lon="7.01027">
        <ele>355</ele>
        <time>2018-09-29T12:30:16+02:00</time>
      </trkpt>
      <trkpt lat="49.20794" lon="7.00996">
        <ele>355</ele>
        <time>2018-09-29T12:30:29+02:00</time>
      </trkpt>
      <trkpt lat="49.20799" lon="7.00958">
        <ele>356</ele>
        <time>2018-09-29T12:30:46+02:00</time>
      </trkpt>
      <trkpt lat="49.20809" lon="7.00927">
        <ele>357</ele>
        <time>2018-09-29T12:31:01+02:00</time>
      </trkpt>
      <trkpt lat="49.20822" lon="7.00896">
        <ele>356</ele>
        <time>2018-09-29T12:31:17+02:00</time>
      </trkpt>
      <trkpt lat="49.2082" lon="7.00861">
        <ele>356</ele>
        <time>2018-09-29T12:31:30+02:00</time>
      </trkpt>
      <trkpt lat="49.2083" lon="7.00829">
        <ele>357</ele>
        <time>2018-09-29T12:31:50+02:00</time>
      </trkpt>
      <trkpt lat="49.20848" lon="7.00809">
        <ele>356</ele>
        <time>2018-09-29T12:32:05+02:00</time>
      </trkpt>
      <trkpt lat="49.20861" lon="7.00779">
        <ele>356</ele>
        <time>2018-09-29T12:32:19+02:00</time>
      </trkpt>
      <trkpt lat="49.20877" lon="7.00748">
        <ele>355</ele>
        <time>2018-09-29T12:32:35+02:00</time>
      </trkpt>
      <trkpt lat="49.20894" lon="7.00724">
        <ele>353</ele>
        <time>2018-09-29T12:32:45+02:00</time>
      </trkpt>
      <trkpt lat="49.20915" lon="7.00709">
        <ele>352</ele>
        <time>2018-09-29T12:32:56+02:00</time>
      </trkpt>
      <trkpt lat="49.20921" lon="7.00674">
        <ele>353</ele>
        <time>2018-09-29T12:33:08+02:00</time>
      </trkpt>
      <trkpt lat="49.20929" lon="7.00641">
        <ele>354</ele>
        <time>2018-09-29T12:33:19+02:00</time>
      </trkpt>
      <trkpt lat="49.20939" lon="7.00608">
        <ele>355</ele>
        <time>2018-09-29T12:33:35+02:00</time>
      </trkpt>
      <trkpt lat="49.20948" lon="7.00574">
        <ele>357</ele>
        <time>2018-09-29T12:33:50+02:00</time>
      </trkpt>
      <trkpt lat="49.20955" lon="7.00535">
        <ele>357</ele>
        <time>2018-09-29T12:34:05+02:00</time>
      </trkpt>
      <trkpt lat="49.20969" lon="7.00508">
        <ele>356</ele>
        <time>2018-09-29T12:34:22+02:00</time>
      </trkpt>
      <trkpt lat="49.20983" lon="7.00478">
        <ele>357</ele>
        <time>2018-09-29T12:34:33+02:00</time>
      </trkpt>
      <trkpt lat="49.20985" lon="7.00441">
        <ele>356</ele>
        <time>2018-09-29T12:34:51+02:00</time>
      </trkpt>
      <trkpt lat="49.20979" lon="7.00402">
        <ele>353</ele>
        <time>2018-09-29T12:35:10+02:00</time>
      </trkpt>
      <trkpt lat="49.20977" lon="7.00367">
        <ele>352</ele>
        <time>2018-09-29T12:35:24+02:00</time>
      </trkpt>
      <trkpt lat="49.20978" lon="7.00331">
        <ele>351</ele>
        <time>2018-09-29T12:35:42+02:00</time>
      </trkpt>
      <trkpt lat="49.20965" lon="7.00295">
        <ele>350</ele>
        <time>2018-09-29T12:36:04+02:00</time>
      </trkpt>
      <trkpt lat="49.20958" lon="7.00261">
        <ele>351</ele>
        <time>2018-09-29T12:36:10+02:00</time>
      </trkpt>
      <trkpt lat="49.20946" lon="7.00229">
        <ele>355</ele>
        <time>2018-09-29T12:36:23+02:00</time>
      </trkpt>
      <trkpt lat="49.2093" lon="7.00204">
        <ele>356</ele>
        <time>2018-09-29T12:36:30+02:00</time>
      </trkpt>
      <trkpt lat="49.20912" lon="7.00184">
        <ele>353</ele>
        <time>2018-09-29T12:36:47+02:00</time>
      </trkpt>
      <trkpt lat="49.2089" lon="7.00167">
        <ele>346</ele>
        <time>2018-09-29T12:37:06+02:00</time>
      </trkpt>
      <trkpt lat="49.20867" lon="7.00159">
        <ele>338</ele>
        <time>2018-09-29T12:37:19+02:00</time>
      </trkpt>
      <trkpt lat="49.20842" lon="7.00151">
        <ele>333</ele>
        <time>2018-09-29T12:37:31+02:00</time>
      </trkpt>
      <trkpt lat="49.2082" lon="7.00144">
        <ele>332</ele>
        <time>2018-09-29T12:37:46+02:00</time>
      </trkpt>
      <trkpt lat="49.20797" lon="7.0015">
        <ele>333</ele>
        <time>2018-09-29T12:37:57+02:00</time>
      </trkpt>
      <trkpt lat="49.20778" lon="7.00169">
        <ele>334</ele>
        <time>2018-09-29T12:38:11+02:00</time>
      </trkpt>
      <trkpt lat="49.20763" lon="7.00197">
        <ele>332</ele>
        <time>2018-09-29T12:38:25+02:00</time>
      </trkpt>
      <trkpt lat="49.20744" lon="7.0022">
        <ele>334</ele>
        <time>2018-09-29T12:38:40+02:00</time>
      </trkpt>
      <trkpt lat="49.20724" lon="7.00241">
        <ele>334</ele>
        <time>2018-09-29T12:38:52+02:00</time>
      </trkpt>
      <trkpt lat="49.20701" lon="7.00251">
        <ele>340</ele>
        <time>2018-09-29T12:39:09+02:00</time>
      </trkpt>
      <trkpt lat="49.20678" lon="7.00252">
        <ele>345</ele>
        <time>2018-09-29T12:39:25+02:00</time>
      </trkpt>
      <trkpt lat="49.20654" lon="7.00256">
        <ele>346</ele>
        <time>2018-09-29T12:39:40+02:00</time>
      </trkpt>
      <trkpt lat="49.20631" lon="7.00249">
        <ele>344</ele>
        <time>2018-09-29T12:40:00+02:00</time>
      </trkpt>
      <trkpt lat="49.20611" lon="7.00232">
        <ele>341</ele>
        <time>2018-09-29T12:40:10+02:00</time>
      </trkpt>
      <trkpt lat="49.20603" lon="7.00199">
        <ele>342</ele>
        <time>2018-09-29T12:40:29+02:00</time>
      </trkpt>
      <trkpt lat="49.20592" lon="7.00167">
        <ele>343</ele>
        <time>2018-09-29T12:40:42+02:00</time>
      </trkpt>
      <trkpt lat="49.20589" lon="7.00124">
        <ele>344</ele>
        <time>2018-09-29T12:40:52+02:00</time>
      </trkpt>
      <trkpt lat="49.20589" lon="7.0009">
        <ele>346</ele>
        <time>2018-09-29T12:41:03+02:00</time>
      </trkpt>
      <trkpt lat="49.20598" lon="7.00057">
        <ele>346</ele>
        <time>2018-09-29T12:41:18+02:00</time>
      </trkpt>
      <trkpt lat="49.2059" lon="7.00025">
        <ele>346</ele>
        <time>2018-09-29T12:41:31+02:00</time>
      </trkpt>
      <trkpt lat="49.20576" lon="6.99997">
        <ele>345</ele>
        <time>2018-09-29T12:41:52+02:00</time>
      </trkpt>
      <trkpt lat="49.20571" lon="6.99964">
        <ele>346</ele>
        <time>2018-09-29T12:42:04+02:00</time>
      </trkpt>
      <trkpt lat="49.20568" lon="6.99928">
        <ele>347</ele>
        <time>2018-09-29T12:42:16+02:00</time>
      </trkpt>
      <trkpt lat="49.20567" lon="6.99893">
        <ele>348</ele>
        <time>2018-09-29T12:42:34+02:00</time>
      </trkpt>
      <trkpt lat="49.20572" lon="6.99859">
        <ele>349</ele>
        <time>2018-09-29T12:42:45+02:00</time>
      </trkpt>
      <trkpt lat="49.20578" lon="6.99824">
        <ele>352</ele>
        <time>2018-09-29T12:42:54+02:00</time>
      </trkpt>
      <trkpt lat="49.20591" lon="6.99794">
        <ele>356</ele>
        <time>2018-09-29T12:43:07+02:00</time>
      </trkpt>
      <trkpt lat="49.20594" lon="6.9976">
        <ele>358</ele>
        <time>2018-09-29T12:43:23+02:00</time>
      </trkpt>
      <trkpt lat="49.20602" lon="6.99728">
        <ele>359</ele>
        <time>2018-09-29T12:43:37+02:00</time>
      </trkpt>
      <trkpt lat="49.20612" lon="6.99696">
        <ele>359</ele>
        <time>2018-09-29T12:43:56+02:00</time>
      </trkpt>
      <trkpt lat="49.20625" lon="6.99667">
        <ele>357</ele>
        <time>2018-09-29T12:44:14+02:00</time>
      </trkpt>
      <trkpt lat="49.20625" lon="6.99632">
        <ele>355</ele>
        <time>2018-09-29T12:44:31+02:00</time>
      </trkpt>
      <trkpt lat="49.20624" lon="6.99596">
        <ele>351</ele>
        <time>2018-09-29T12:44:48+02:00</time>
      </trkpt>
      <trkpt lat="49.20614" lon="6.99565">
        <ele>347</ele>
        <time>2018-09-29T12:45:01+02:00</time>
      </trkpt>
      <trkpt lat="49.20601" lon="6.99534">
        <ele>345</ele>
        <time>2018-09-29T12:45:14+02:00</time>
      </trkpt>
      <trkpt lat="49.20588" lon="6.99503">
        <ele>349</ele>
        <time>2018-09-29T12:45:35+02:00</time>
      </trkpt>
      <trkpt lat="49.20571" lon="6.99478">
        <ele>351</ele>
        <time>2018-09-29T12:45:42+02:00</time>
      </trkpt>
      <trkpt lat="49.20552" lon="6.99452">
        <ele>354</ele>
        <time>2018-09-29T12:46:03+02:00</time>
      </trkpt>
      <trkpt lat="49.20535" lon="6.99426">
        <ele>351</ele>
        <time>2018-09-29T12:46:17+02:00</time>
      </trkpt>
      <trkpt lat="49.20524" lon="6.99395">
        <ele>349</ele>
        <time>2018-09-29T12:46:30+02:00</time>
      </trkpt>
      <trkpt lat="49.2051" lon="6.99366">
        <ele>349</ele>
        <time>2018-09-29T12:46:42+02:00</time>
      </trkpt>
      <trkpt lat="49.20494" lon="6.99337">
        <ele>350</ele>
        <time>2018-09-29T12:46:59+02:00</time>
      </trkpt>
      <trkpt lat="49.20477" lon="6.99312">
        <ele>350</ele>
        <time>2018-09-29T12:47:14+02:00</time>
      </trkpt>
      <trkpt lat="49.20458" lon="6.99292">
        <ele>351</ele>
        <time>2018-09-29T12:47:25+02:00</time>
      </trkpt>
      <trkpt lat="49.20441" lon="6.99264">
        <ele>352</ele>
        <time>2018-09-29T12:47:43+02:00</time>
      </trkpt>
      <trkpt lat="49.20436" lon="6.99229">
        <ele>357</ele>
        <time>2018-09-29T12:48:07+02:00</time>
      </trkpt>
      <trkpt lat="49.20436" lon="6.99193">
        <ele>360</ele>
        <time>2018-09-29T12:48:25+02:00</time>
      </trkpt>
      <trkpt lat="49.20429" lon="6.9916">
        <ele>361</ele>
        <time>2018-09-29T12:48:38+02:00</time>
      </trkpt>
      <trkpt lat="49.20413" lon="6.99134">
        <ele>360</ele>
        <time>2018-09-29T12:48:47+02:00</time>
      </trkpt>
      <trkpt lat="49.20399" lon="6.99106">
        <ele>360</ele>
        <time>2018-09-29T12:49:06+02:00</time>
      </trkpt>
      <trkpt lat="49.20389" lon="6.9907">
        <ele>361</ele>
        <time>2018-09-29T12:49:28+02:00</time>
      </trkpt>
      <trkpt lat="49.20376" lon="6.9904">
        <ele>360</ele>
        <time>2018-09-29T12:49:40+02:00</time>
      </trkpt>
      <trkpt lat="49.20368" lon="6.99006">
        <ele>358</ele>
        <time>2018-09-29T12:50:00+02:00</time>
      </trkpt>
      <trkpt lat="49.20377" lon="6.98967">
        <ele>357</ele>
        <time>2018-09-29T12:50:29+02:00</time>
      </trkpt>
      <trkpt lat="49.20377" lon="6.98926">
        <ele>357</ele>
        <time>2018-09-29T12:50:38+02:00</time>
      </trkpt>
      <trkpt lat="49.20374" lon="6.98889">
        <ele>358</ele>
        <time>2018-09-29T12:50:50+02:00</time>
      </trkpt>
      <trkpt lat="49.2038" lon="6.98854">
        <ele>357</ele>
        <time>2018-09-29T12:51:09+02:00</time>
      </trkpt>
      <trkpt lat="49.2038" lon="6.98817">
        <ele>356</ele>
        <time>2018-09-29T12:51:18+02:00</time>
      </trkpt>
      <trkpt lat="49.20385" lon="6.98781">
        <ele>355</ele>
        <time>2018-09-29T12:51:33+02:00</time>
      </trkpt>
      <trkpt lat="49.20392" lon="6.98747">
        <ele>356</ele>
        <time>2018-09-29T12:51:43+02:00</time>
      </trkpt>
      <trkpt lat="49.20403" lon="6.98717">
        <ele>357</ele>
        <time>2018-09-29T12:51:57+02:00</time>
      </trkpt>
      <trkpt lat="49.2042" lon="6.98694">
        <ele>361</ele>
        <time>2018-09-29T12:52:23+02:00</time>
      </trkpt>
      <trkpt lat="49.20439" lon="6.98672">
        <ele>361</ele>
        <time>2018-09-29T12:52:40+02:00</time>
      </trkpt>
      <trkpt lat="49.20462" lon="6.98667">
        <ele>358</ele>
        <time>2018-09-29T12:52:58+02:00</time>
      </trkpt>
      <trkpt lat="49.20484" lon="6.9866">
        <ele>352</ele>
        <time>2018-09-29T12:53:19+02:00</time>
      </trkpt>
      <trkpt lat="49.20509" lon="6.98659">
        <ele>346</ele>
        <time>2018-09-29T12:53:30+02:00</time>
      </trkpt>
      <trkpt lat="49.2053" lon="6.98672">
        <ele>339</ele>
        <time>2018-09-29T12:53:42+02:00</time>
      </trkpt>
      <trkpt lat="49.20552" lon="6.98673">
        <ele>333</ele>
        <time>2018-09-29T12:53:58+02:00</time>
      </trkpt>
      <trkpt lat="49.20575" lon="6.98676">
        <ele>329</ele>
        <time>2018-09-29T12:54:17+02:00</time>
      </trkpt>
      <trkpt lat="49.20598" lon="6.98675">
        <ele>327</ele>
        <time>2018-09-29T12:54:28+02:00</time>
      </trkpt>
      <trkpt lat="49.20612" lon="6.98648">
        <ele>329</ele>
        <time>2018-09-29T12:54:50+02:00</time>
      </trkpt>
      <trkpt lat="49.20624" lon="6.98618">
        <ele>329</ele>
        <time>2018-09-29T12:55:08+02:00</time>
      </trkpt>
      <trkpt lat="49.20618" lon="6.98584">
        <ele>335</ele>
        <time>2018-09-29T12:55:30+02:00</time>
      </trkpt>
      <trkpt lat="49.20611" lon="6.98549">
        <ele>336</ele>
        <time>2018-09-29T12:56:19+02:00</time>
      </trkpt>
      <trkpt lat="49.20603" lon="6.98515">
        <ele>335</ele>
        <time>2018-09-29T12:56:29+02:00</time>
      </trkpt>
      <trkpt lat="49.20597" lon="6.9848">
        <ele>336</ele>
        <time>2018-09-29T12:56:47+02:00</time>
      </trkpt>
      <trkpt lat="49.20597" lon="6.98436">
        <ele>339</ele>
        <time>2018-09-29T12:56:57+02:00</time>
      </trkpt>
      <trkpt lat="49.20591" lon="6.98401">
        <ele>340</ele>
        <time>2018-09-29T12:57:05+02:00</time>
      </trkpt>
      <trkpt lat="49.20589" lon="6.98366">
        <ele>342</ele>
        <time>2018-09-29T12:57:23+02:00</time>
      </trkpt>
      <trkpt lat="49.20584" lon="6.98332">
        <ele>340</ele>
        <time>2018-09-29T12:57:41+02:00</time>
      </trkpt>
      <trkpt lat="49.20577" lon="6.98293">
        <ele>338</ele>
        <time>2018-09-29T12:57:53+02:00</time>
      </trkpt>
      <trkpt lat="49.20565" lon="6.98262">
        <ele>337</ele>
        <time>2018-09-29T12:58:08+02:00</time>
      </trkpt>
      <trkpt lat="49.20572" lon="6.98229">
        <ele>335</ele>
        <time>2018-09-29T12:58:27+02:00</time>
      </trkpt>
      <trkpt lat="49.20584" lon="6.98199">
        <ele>334</ele>
        <time>2018-09-29T12:58:40+02:00</time>
      </trkpt>
      <trkpt lat="49.20592" lon="6.98162">
        <ele>334</ele>
        <time>2018-09-29T12:58:56+02:00</time>
      </trkpt>
      <trkpt lat="49.20601" lon="6.98129">
        <ele>333</ele>
        <time>2018-09-29T12:59:18+02:00</time>
      </trkpt>
      <trkpt lat="49.20618" lon="6.98104">
        <ele>332</ele>
        <time>2018-09-29T12:59:35+02:00</time>
      </trkpt>
      <trkpt lat="49.20626" lon="6.98071">
        <ele>331</ele>
        <time>2018-09-29T12:59:42+02:00</time>
      </trkpt>
      <trkpt lat="49.20634" lon="6.98037">
        <ele>331</ele>
        <time>2018-09-29T12:59:54+02:00</time>
      </trkpt>
      <trkpt lat="49.20622" lon="6.98007">
        <ele>327</ele>
        <time>2018-09-29T13:00:13+02:00</time>
      </trkpt>
      <trkpt lat="49.20618" lon="6.97973">
        <ele>326</ele>
        <time>2018-09-29T13:00:23+02:00</time>
      </trkpt>
      <trkpt lat="49.20605" lon="6.97941">
        <ele>324</ele>
        <time>2018-09-29T13:00:46+02:00</time>
      </trkpt>
      <trkpt lat="49.20588" lon="6.97914">
        <ele>324</ele>
        <time>2018-09-29T13:00:58+02:00</time>
      </trkpt>
      <trkpt lat="49.20577" lon="6.97881">
        <ele>324</ele>
        <time>2018-09-29T13:01:18+02:00</time>
      </trkpt>
      <trkpt lat="49.20568" lon="6.97842">
        <ele>325</ele>
        <time>2018-09-29T13:01:31+02:00</time>
      </trkpt>
      <trkpt lat="49.20558" lon="6.97811">
        <ele>325</ele>
        <time>2018-09-29T13:01:50+02:00</time>
      </trkpt>
      <trkpt lat="49.20544" lon="6.97781">
        <ele>325</ele>
        <time>2018-09-29T13:01:57+02:00</time>
      </trkpt>
      <trkpt lat="49.20532" lon="6.97749">
        <ele>323</ele>
        <time>2018-09-29T13:02:12+02:00</time>
      </trkpt>
      <trkpt lat="49.2053" lon="6.97714">
        <ele>324</ele>
        <time>2018-09-29T13:02:22+02:00</time>
      </trkpt>
      <trkpt lat="49.20525" lon="6.97679">
        <ele>325</ele>
        <time>2018-09-29T13:02:37+02:00</time>
      </trkpt>
      <trkpt lat="49.20516" lon="6.97646">
        <ele>326</ele>
        <time>2018-09-29T13:02:55+02:00</time>
      </trkpt>
      <trkpt lat="49.20508" lon="6.97609">
        <ele>326</ele>
        <time>2018-09-29T13:03:20+02:00</time>
      </trkpt>
      <trkpt lat="49.20498" lon="6.97575">
        <ele>327</ele>
        <time>2018-09-29T13:03:42+02:00</time>
      </trkpt>
      <trkpt lat="49.20493" lon="6.9754">
        <ele>332</ele>
        <time>2018-09-29T13:04:04+02:00</time>
      </trkpt>
      <trkpt lat="49.20479" lon="6.97506">
        <ele>334</ele>
        <time>2018-09-29T13:04:15+02:00</time>
      </trkpt>
      <trkpt lat="49.20464" lon="6.97476">
        <ele>336</ele>
        <time>2018-09-29T13:04:24+02:00</time>
      </trkpt>
      <trkpt lat="49.20455" lon="6.97443">
        <ele>340</ele>
        <time>2018-09-29T13:04:38+02:00</time>
      </trkpt>
      <trkpt lat="49.20445" lon="6.97409">
        <ele>344</ele>
        <time>2018-09-29T13:04:58+02:00</time>
      </trkpt>
      <trkpt lat="49.20446" lon="6.97375">
        <ele>343</ele>
        <time>2018-09-29T13:05:30+02:00</time>
      </trkpt>
      <trkpt lat="49.2044" lon="6.9734">
        <ele>348</ele>
        <time>2018-09-29T13:05:59+02:00</time>
      </trkpt>
      <trkpt lat="49.20437" lon="6.97303">
        <ele>349</ele>
        <time>2018-09-29T13:06:05+02:00</time>
      </trkpt>
      <trkpt lat="49.20441" lon="6.97266">
        <ele>358</ele>
        <time>2018-09-29T13:06:27+02:00</time>
      </trkpt>
      <trkpt lat="49.2044" lon="6.9723">
        <ele>363</ele>
        <time>2018-09-29T13:06:44+02:00</time>
      </trkpt>
      <trkpt lat="49.20447" lon="6.97196">
        <ele>365</ele>
        <time>2018-09-29T13:07:13+02:00</time>
      </trkpt>
      <trkpt lat="49.20464" lon="6.97169">
        <ele>362</ele>
        <time>2018-09-29T13:07:28+02:00</time>
      </trkpt>
      <trkpt lat="49.20481" lon="6.97146">
        <ele>361</ele>
        <time>2018-09-29T13:07:47+02:00</time>
      </trkpt>
      <trkpt lat="49.20504" lon="6.97135">
        <ele>361</ele>
        <time>2018-09-29T13:07:59+02:00</time>
      </trkpt>
      <trkpt lat="49.20523" lon="6.97115">
        <ele>362</ele>
        <time>2018-09-29T13:08:10+02:00</time>
      </trkpt>
      <trkpt lat="49.2054" lon="6.97091">
        <ele>362</ele>
        <time>2018-09-29T13:08:23+02:00</time>
      </trkpt>
      <trkpt lat="49.20554" lon="6.97061">
        <ele>363</ele>
        <time>2018-09-29T13:08:38+02:00</time>
      </trkpt>
      <trkpt lat="49.20558" lon="6.97026">
        <ele>364</ele>
        <time>2018-09-29T13:08:52+02:00</time>
      </trkpt>
      <trkpt lat="49.20545" lon="6.96998">
        <ele>365</ele>
        <time>2018-09-29T13:09:10+02:00</time>
      </trkpt>
      <trkpt lat="49.20527" lon="6.96982">
        <ele>319</ele>
        <time>2018-09-29T13:09:26+02:00</time>
      </trkpt>
      <trkpt lat="49.20504" lon="6.96963">
        <ele>362</ele>
        <time>2018-09-29T13:09:41+02:00</time>
      </trkpt>
      <trkpt lat="49.20487" lon="6.96941">
        <ele>364</ele>
        <time>2018-09-29T13:09:59+02:00</time>
      </trkpt>
      <trkpt lat="49.20466" lon="6.96925">
        <ele>365</ele>
        <time>2018-09-29T13:10:10+02:00</time>
      </trkpt>
      <trkpt lat="49.20445" lon="6.96913">
        <ele>366</ele>
        <time>2018-09-29T13:10:29+02:00</time>
      </trkpt>
      <trkpt lat="49.20423" lon="6.96904">
        <ele>366</ele>
        <time>2018-09-29T13:10:45+02:00</time>
      </trkpt>
      <trkpt lat="49.20388" lon="6.96885">
        <ele>326</ele>
        <time>2018-09-29T13:11:42+02:00</time>
      </trkpt>
    </trkseg>
  </trk>
</gpx>